Repülésmeteorológia

  • METAR LHSM 261045Z 21017KT CAVOK 19/07 Q1009 NOSIG=
  • METAR LHSM 261015Z 19014KT 9999 FEW045 BKN200 19/07 Q1010 NOSIG=
  • METAR LHSM 260945Z 20010KT 9999 FEW040 SCT083 BKN200 18/08 Q1010
  • METAR LHSM 260915Z 19013KT 9999 FEW040 SCT083 BKN200 16/07 Q1010
  • METAR LHSM 260845Z 19015KT CAVOK 16/07 Q1010 NOSIG=

  • TAF LHSM 261100Z 2612/2621 22016G26KT CAVOK
  • TAF LHSM 260800Z 2609/2618 18012KT CAVOK
  • TAF LHSM 260500Z 2606/2615 19010KT CAVOK
  • TAF LHSM 251100Z 2512/2521 22013G23KT CAVOK
  • TAF LHSM 250800Z 2509/2518 22013G23KT CAVOK